createdAt,value
2023-05-17T00:01:10.712Z,15.38
2023-05-17T00:02:17.405Z,15.42
2023-05-17T00:03:24.998Z,15.42
2023-05-17T00:04:29.531Z,15.38
2023-05-17T00:05:34.957Z,15.38
2023-05-17T00:06:39.848Z,15.35
2023-05-17T00:07:44.385Z,15.39
2023-05-17T00:08:48.945Z,15.43
2023-05-17T00:09:54.358Z,15.43
2023-05-17T00:10:58.584Z,15.48
2023-05-17T00:12:08.651Z,15.48
2023-05-17T00:13:27.674Z,15.47
2023-05-17T00:14:32.386Z,15.47
2023-05-17T00:15:36.798Z,15.49
2023-05-17T00:16:42.667Z,15.51
2023-05-17T00:17:48.913Z,15.49
2023-05-17T00:18:56.818Z,15.51
2023-05-17T00:20:02.166Z,15.55
2023-05-17T00:21:10.630Z,15.56
2023-05-17T00:22:26.629Z,15.56
2023-05-17T00:23:38.536Z,15.59
2023-05-17T00:24:46.921Z,15.57
2023-05-17T00:25:52.812Z,15.47
2023-05-17T00:26:58.859Z,15.43
2023-05-17T00:28:03.369Z,15.42
2023-05-17T00:29:11.406Z,15.46
2023-05-17T00:30:15.862Z,15.41
2023-05-17T00:31:20.804Z,15.33
2023-05-17T00:32:24.961Z,15.37
2023-05-17T00:33:29.351Z,15.39
2023-05-17T00:34:33.705Z,15.39
2023-05-17T00:35:38.251Z,15.43
2023-05-17T00:36:52.050Z,15.39
2023-05-17T00:38:01.556Z,15.41
2023-05-17T00:39:07.299Z,15.42
2023-05-17T00:40:21.827Z,15.41
2023-05-17T00:41:26.240Z,15.44
2023-05-17T00:42:31.570Z,15.42
2023-05-17T00:43:37.626Z,15.45
2023-05-17T00:44:45.120Z,15.41
2023-05-17T00:45:55.823Z,15.39
2023-05-17T00:47:30.933Z,15.41
2023-05-17T00:48:36.682Z,15.43
2023-05-17T00:49:43.199Z,15.48
2023-05-17T00:51:02.362Z,15.46
2023-05-17T00:52:08.942Z,15.39
2023-05-17T00:53:16.740Z,15.37
2023-05-17T00:54:21.687Z,15.36
2023-05-17T00:55:26.812Z,15.36
2023-05-17T00:56:33.942Z,15.35
2023-05-17T00:57:41.282Z,15.35
2023-05-17T00:58:45.747Z,15.38
2023-05-17T00:59:52.584Z,15.38
2023-05-17T01:00:56.960Z,15.32
2023-05-17T01:02:12.679Z,15.29
2023-05-17T01:03:19.620Z,15.30
2023-05-17T01:04:26.248Z,15.29
2023-05-17T01:05:32.566Z,15.31
2023-05-17T01:06:41.974Z,15.29
2023-05-17T01:07:47.385Z,15.25
2023-05-17T01:08:52.504Z,15.25
2023-05-17T01:09:57.431Z,15.28
2023-05-17T01:11:56.290Z,15.26
2023-05-17T01:13:29.717Z,15.29
2023-05-17T01:15:13.883Z,15.31
2023-05-17T01:16:26.716Z,15.24
2023-05-17T01:18:01.488Z,15.27
2023-05-17T01:19:19.723Z,15.25
2023-05-17T01:20:32.077Z,15.18
2023-05-17T01:21:53.031Z,15.23
2023-05-17T01:23:55.388Z,15.17
2023-05-17T01:25:45.679Z,15.21
2023-05-17T01:26:54.607Z,15.17
2023-05-17T01:28:05.155Z,15.24
2023-05-17T01:29:10.515Z,15.20
2023-05-17T01:30:22.006Z,15.18
2023-05-17T01:31:27.309Z,15.14
2023-05-17T01:32:36.973Z,15.15
2023-05-17T01:33:48.630Z,15.21
2023-05-17T01:34:53.735Z,15.24
2023-05-17T01:35:59.655Z,15.23
2023-05-17T01:37:04.188Z,15.25
2023-05-17T01:38:09.322Z,15.26
2023-05-17T01:39:22.636Z,15.24
2023-05-17T01:40:31.937Z,15.24
2023-05-17T01:41:48.565Z,15.24
2023-05-17T01:43:32.329Z,15.22
2023-05-17T01:45:07.565Z,15.23
2023-05-17T01:46:44.160Z,15.27
2023-05-17T01:48:35.467Z,15.27
2023-05-17T01:49:50.909Z,15.24
2023-05-17T01:51:00.347Z,15.28
2023-05-17T01:52:30.244Z,15.30
2023-05-17T01:53:57.442Z,15.30
2023-05-17T01:55:20.098Z,15.19
2023-05-17T01:56:37.922Z,15.16
2023-05-17T01:57:49.389Z,15.11
2023-05-17T01:58:54.611Z,15.15
2023-05-17T02:00:06.389Z,15.14
2023-05-17T02:01:15.499Z,15.15
2023-05-17T02:02:23.336Z,15.15
2023-05-17T02:03:36.700Z,15.14
2023-05-17T02:04:41.664Z,15.08
2023-05-17T02:05:46.371Z,15.09
2023-05-17T02:06:50.434Z,15.13
2023-05-17T02:07:57.260Z,15.12
2023-05-17T02:09:03.497Z,15.12
2023-05-17T02:10:10.345Z,15.10
2023-05-17T02:11:15.846Z,15.06
2023-05-17T02:12:27.855Z,15.11
2023-05-17T02:13:32.714Z,15.08
2023-05-17T02:14:39.746Z,15.12
2023-05-17T02:15:45.460Z,15.14
2023-05-17T02:16:49.728Z,15.16
2023-05-17T02:17:55.778Z,15.17
2023-05-17T02:19:02.475Z,15.14
2023-05-17T02:20:09.810Z,15.11
2023-05-17T02:21:19.048Z,15.09
2023-05-17T02:22:30.952Z,15.14
2023-05-17T02:23:40.060Z,15.14
2023-05-17T02:24:44.828Z,15.11
2023-05-17T02:25:53.288Z,15.10
2023-05-17T02:26:57.859Z,15.10
2023-05-17T02:28:06.764Z,15.09
2023-05-17T02:29:18.266Z,15.02
2023-05-17T02:30:24.992Z,15.06
2023-05-17T02:31:29.680Z,15.02
2023-05-17T02:32:36.195Z,15.07
2023-05-17T02:33:40.962Z,15.06
2023-05-17T02:34:47.063Z,15.04
2023-05-17T02:35:52.385Z,14.99
2023-05-17T02:36:58.149Z,15.01
2023-05-17T02:38:02.330Z,14.98
2023-05-17T02:39:06.928Z,15.01
2023-05-17T02:40:13.783Z,15.01
2023-05-17T02:41:26.729Z,14.96
2023-05-17T02:42:31.064Z,15.01
2023-05-17T02:43:39.231Z,14.98
2023-05-17T02:44:44.564Z,14.99
2023-05-17T02:45:49.470Z,15.02
2023-05-17T02:46:55.511Z,15.03
2023-05-17T02:47:59.599Z,14.98
2023-05-17T02:49:07.401Z,14.98
2023-05-17T02:50:22.546Z,15.01
2023-05-17T02:51:28.688Z,14.95
2023-05-17T02:52:32.676Z,14.93
2023-05-17T02:53:40.823Z,14.87
2023-05-17T02:54:46.521Z,14.77
2023-05-17T02:55:53.507Z,14.81
2023-05-17T02:57:02.065Z,14.86
2023-05-17T02:58:08.887Z,14.85
2023-05-17T02:59:14.438Z,14.75
2023-05-17T03:00:41.454Z,14.74
2023-05-17T03:01:50.623Z,14.66
2023-05-17T03:02:57.029Z,14.61
2023-05-17T03:04:03.934Z,14.61
2023-05-17T03:05:10.320Z,14.64
2023-05-17T03:06:18.159Z,14.58
2023-05-17T03:07:25.116Z,14.58
2023-05-17T03:08:34.583Z,14.55
2023-05-17T03:09:39.189Z,14.54
2023-05-17T03:10:46.093Z,14.50
2023-05-17T03:11:52.103Z,14.46
2023-05-17T03:12:58.744Z,14.45
2023-05-17T03:14:04.081Z,14.45
2023-05-17T03:15:08.872Z,14.38
2023-05-17T03:16:12.952Z,14.41
2023-05-17T03:17:16.898Z,14.47
2023-05-17T03:18:21.107Z,14.48
2023-05-17T03:19:33.557Z,14.48
2023-05-17T03:20:37.699Z,14.37
2023-05-17T03:21:41.669Z,14.33
2023-05-17T03:22:45.730Z,14.36
2023-05-17T03:23:49.736Z,14.35
2023-05-17T03:24:53.824Z,14.33
2023-05-17T03:25:57.909Z,14.38
2023-05-17T03:27:01.878Z,14.34
2023-05-17T03:28:09.074Z,14.36
2023-05-17T03:29:13.505Z,14.27
2023-05-17T03:30:18.945Z,14.28
2023-05-17T03:31:26.455Z,14.34
2023-05-17T03:32:32.237Z,14.32
2023-05-17T03:33:37.451Z,14.31
2023-05-17T03:34:42.978Z,14.29
2023-05-17T03:35:50.277Z,14.28
2023-05-17T03:37:00.103Z,14.27
2023-05-17T03:38:05.684Z,14.26
2023-05-17T03:39:16.969Z,14.27
2023-05-17T03:40:24.809Z,14.29
2023-05-17T03:41:32.358Z,14.28
2023-05-17T03:42:37.301Z,14.31
2023-05-17T03:43:42.601Z,14.33
2023-05-17T03:44:47.600Z,14.32
2023-05-17T03:46:02.086Z,14.37
2023-05-17T03:47:06.807Z,14.34
2023-05-17T03:48:11.645Z,14.32
2023-05-17T03:49:24.511Z,14.31
2023-05-17T03:50:33.757Z,14.31
2023-05-17T03:51:46.422Z,14.32
2023-05-17T03:52:55.459Z,14.33
2023-05-17T03:54:04.029Z,14.34
2023-05-17T03:55:09.740Z,14.29
2023-05-17T03:56:16.054Z,14.30
2023-05-17T03:57:24.786Z,14.32
2023-05-17T03:58:32.407Z,14.28
2023-05-17T03:59:37.051Z,14.27
2023-05-17T04:00:41.706Z,14.23
2023-05-17T04:01:46.923Z,14.20
2023-05-17T04:02:53.074Z,14.22
2023-05-17T04:03:58.733Z,14.16
2023-05-17T04:05:03.217Z,14.16
2023-05-17T04:06:10.553Z,14.20
2023-05-17T04:07:14.552Z,14.22
2023-05-17T04:08:19.712Z,14.23
2023-05-17T04:09:26.981Z,14.25
2023-05-17T04:10:32.641Z,14.25
2023-05-17T04:11:40.590Z,14.23
2023-05-17T04:12:47.791Z,14.29
2023-05-17T04:13:52.447Z,14.30
2023-05-17T04:14:58.821Z,14.31
2023-05-17T04:16:02.772Z,14.33
2023-05-17T04:17:09.137Z,14.33
2023-05-17T04:18:22.142Z,14.36
2023-05-17T04:19:29.789Z,14.41
2023-05-17T04:20:34.232Z,14.43
2023-05-17T04:21:38.722Z,14.41
2023-05-17T04:22:51.385Z,14.33
2023-05-17T04:23:55.842Z,14.33
2023-05-17T04:25:08.516Z,14.34
2023-05-17T04:26:16.278Z,14.37
2023-05-17T04:27:23.656Z,14.36
2023-05-17T04:28:32.952Z,14.37
2023-05-17T04:29:47.132Z,14.37
2023-05-17T04:30:52.626Z,14.34
2023-05-17T04:32:01.966Z,14.35
2023-05-17T04:33:13.329Z,14.36
2023-05-17T04:34:19.302Z,14.37
2023-05-17T04:35:27.728Z,14.37
2023-05-17T04:36:32.512Z,14.30
2023-05-17T04:37:39.903Z,14.31
2023-05-17T04:38:45.434Z,14.30
2023-05-17T04:39:54.251Z,14.31
2023-05-17T04:41:05.809Z,14.32
2023-05-17T04:42:14.381Z,14.35
2023-05-17T04:43:21.795Z,14.37
2023-05-17T04:44:50.613Z,14.38
2023-05-17T04:46:03.175Z,14.36
2023-05-17T04:47:09.725Z,14.31
2023-05-17T04:49:51.827Z,14.35
2023-05-17T04:51:04.795Z,14.34
2023-05-17T04:52:10.827Z,14.30
2023-05-17T04:53:16.008Z,14.31
2023-05-17T04:54:20.209Z,14.33
2023-05-17T04:55:34.355Z,14.32
2023-05-17T04:56:41.576Z,14.31
2023-05-17T04:57:48.268Z,14.32
2023-05-17T04:59:03.873Z,14.28
2023-05-17T05:00:16.394Z,14.32
2023-05-17T05:01:27.446Z,14.33
2023-05-17T05:02:47.108Z,14.30
2023-05-17T05:03:53.428Z,14.29
2023-05-17T05:04:59.537Z,14.25
2023-05-17T05:06:08.084Z,14.26
2023-05-17T05:07:16.014Z,14.25
2023-05-17T05:08:20.669Z,14.27
2023-05-17T05:09:25.661Z,14.28
2023-05-17T05:10:31.742Z,14.29
2023-05-17T05:11:37.787Z,14.29
2023-05-17T05:12:45.787Z,14.34
2023-05-17T05:13:49.873Z,14.31
2023-05-17T05:14:54.116Z,14.37
2023-05-17T05:15:58.061Z,14.39
2023-05-17T05:17:01.869Z,14.42
2023-05-17T05:18:16.218Z,14.43
2023-05-17T05:19:20.249Z,14.39
2023-05-17T05:20:25.866Z,14.41
2023-05-17T05:21:33.570Z,14.44
2023-05-17T05:22:37.447Z,14.49
2023-05-17T05:23:41.730Z,14.51
2023-05-17T05:24:46.052Z,14.56
2023-05-17T05:25:51.252Z,14.64
2023-05-17T05:26:55.582Z,14.65
2023-05-17T05:28:01.312Z,14.58
2023-05-17T05:29:06.812Z,14.50
2023-05-17T05:30:14.298Z,14.52
2023-05-17T05:31:19.414Z,14.58
2023-05-17T05:32:27.537Z,14.57
2023-05-17T05:33:41.686Z,14.58
2023-05-17T05:34:54.636Z,14.61
2023-05-17T05:36:00.163Z,14.64
2023-05-17T05:37:18.600Z,14.64
2023-05-17T05:38:23.017Z,14.62
2023-05-17T05:39:30.918Z,14.64
2023-05-17T05:40:44.238Z,14.59
2023-05-17T05:41:50.055Z,14.60
2023-05-17T05:43:17.324Z,14.57
2023-05-17T05:44:23.385Z,14.53
2023-05-17T05:45:35.095Z,14.51
2023-05-17T05:46:40.972Z,14.50
2023-05-17T05:47:54.209Z,14.52
2023-05-17T05:49:03.748Z,14.52
2023-05-17T05:50:23.586Z,14.53
2023-05-17T05:51:31.958Z,14.54
2023-05-17T05:52:37.226Z,14.56
2023-05-17T05:54:11.185Z,14.53
2023-05-17T05:55:17.230Z,14.49
2023-05-17T05:56:22.916Z,14.45
2023-05-17T05:57:30.425Z,14.51
2023-05-17T05:58:34.886Z,14.50
2023-05-17T05:59:39.798Z,14.53
2023-05-17T06:00:47.886Z,14.55
2023-05-17T06:01:55.487Z,14.56
2023-05-17T06:03:07.189Z,14.56
2023-05-17T06:04:13.394Z,14.60
2023-05-17T06:05:22.497Z,14.60
2023-05-17T06:06:31.555Z,14.61
2023-05-17T06:07:38.253Z,14.65
2023-05-17T06:08:47.752Z,14.65
2023-05-17T06:09:54.347Z,14.65
2023-05-17T06:11:09.028Z,14.63
2023-05-17T06:12:21.961Z,14.60
2023-05-17T06:13:29.800Z,14.63
2023-05-17T06:14:38.206Z,14.61
2023-05-17T06:15:45.688Z,14.60
2023-05-17T06:17:01.172Z,14.59
2023-05-17T06:18:06.334Z,14.64
2023-05-17T06:19:11.690Z,14.67
2023-05-17T06:20:16.936Z,14.70
2023-05-17T06:21:28.971Z,14.75
2023-05-17T06:22:33.244Z,14.76
2023-05-17T06:23:40.498Z,14.69
2023-05-17T06:24:48.548Z,14.67
2023-05-17T06:25:59.234Z,14.66
2023-05-17T06:27:05.364Z,14.63
2023-05-17T06:28:09.776Z,14.64
2023-05-17T06:29:14.359Z,14.70
2023-05-17T06:30:18.497Z,14.72
2023-05-17T06:31:22.879Z,14.70
2023-05-17T06:32:27.392Z,14.72
2023-05-17T06:33:31.523Z,14.75
2023-05-17T06:34:36.141Z,14.72
2023-05-17T06:35:54.259Z,14.71
2023-05-17T06:37:04.222Z,14.70
2023-05-17T06:38:09.877Z,14.67
2023-05-17T06:39:14.258Z,14.64
2023-05-17T06:40:18.243Z,14.65
2023-05-17T06:41:25.459Z,14.71
2023-05-17T06:42:29.316Z,14.67
2023-05-17T06:43:37.076Z,14.69
2023-05-17T06:44:47.487Z,14.76
2023-05-17T06:45:54.559Z,14.78
2023-05-17T06:47:01.025Z,14.76
2023-05-17T06:48:07.709Z,14.70
2023-05-17T06:49:12.492Z,14.70
2023-05-17T06:50:16.574Z,14.65
2023-05-17T06:51:21.057Z,14.69
2023-05-17T06:52:26.775Z,14.69
2023-05-17T06:53:31.626Z,14.68
2023-05-17T06:54:37.169Z,14.66
2023-05-17T06:55:43.442Z,14.64
2023-05-17T06:56:50.317Z,14.68
2023-05-17T06:57:54.314Z,14.69
2023-05-17T06:58:59.837Z,14.69
2023-05-17T07:00:16.686Z,14.71
2023-05-17T07:01:22.038Z,14.69
2023-05-17T07:02:33.705Z,14.73
2023-05-17T07:03:39.018Z,14.70
2023-05-17T07:04:43.634Z,14.71
2023-05-17T07:05:50.420Z,14.74
2023-05-17T07:06:55.908Z,14.72
2023-05-17T07:08:02.032Z,14.69
2023-05-17T07:09:16.887Z,14.66
2023-05-17T07:10:22.833Z,14.67
2023-05-17T07:11:26.910Z,14.65
2023-05-17T07:12:34.193Z,14.66
2023-05-17T07:13:47.464Z,14.65
2023-05-17T07:14:51.981Z,14.61
2023-05-17T07:15:56.408Z,14.63
2023-05-17T07:17:01.482Z,14.65
2023-05-17T07:18:06.232Z,14.60
2023-05-17T07:19:10.873Z,14.56
2023-05-17T07:20:16.981Z,14.59
2023-05-17T07:21:25.986Z,14.57
2023-05-17T07:22:32.468Z,14.58
2023-05-17T07:23:37.081Z,14.60
2023-05-17T07:24:43.884Z,14.64
2023-05-17T07:25:47.983Z,14.61
2023-05-17T07:26:52.642Z,14.67
2023-05-17T07:27:56.850Z,14.73
2023-05-17T07:29:07.355Z,14.75
2023-05-17T07:30:15.637Z,14.73
2023-05-17T07:31:20.187Z,14.71
2023-05-17T07:32:27.425Z,14.76
2023-05-17T07:33:32.335Z,14.76
2023-05-17T07:34:39.906Z,14.79
2023-05-17T07:35:45.569Z,14.75
2023-05-17T07:36:50.058Z,14.74
2023-05-17T07:37:55.389Z,14.77
2023-05-17T07:38:59.534Z,14.76
2023-05-17T07:40:05.611Z,14.77
2023-05-17T07:41:15.000Z,14.72
2023-05-17T07:42:22.834Z,14.73
2023-05-17T07:43:26.747Z,14.77
2023-05-17T07:44:31.102Z,14.76
2023-05-17T07:45:36.204Z,14.75
2023-05-17T07:46:44.225Z,14.79
2023-05-17T07:47:49.064Z,14.77
2023-05-17T07:48:57.370Z,14.80
2023-05-17T07:50:05.726Z,14.82
2023-05-17T07:51:10.189Z,14.78
2023-05-17T07:52:14.671Z,14.77
2023-05-17T07:53:18.476Z,14.81
2023-05-17T07:54:27.580Z,14.82
2023-05-17T07:55:31.968Z,14.76
2023-05-17T07:56:42.144Z,14.78
2023-05-17T07:57:54.130Z,14.77
2023-05-17T07:58:59.561Z,14.79
2023-05-17T08:00:04.566Z,14.82
2023-05-17T08:01:11.018Z,14.76
2023-05-17T08:02:15.343Z,14.76
2023-05-17T08:03:20.029Z,14.79
2023-05-17T08:04:24.578Z,14.76
2023-05-17T08:05:34.864Z,14.77
2023-05-17T08:06:51.711Z,14.77
2023-05-17T08:08:00.938Z,14.78
2023-05-17T08:09:08.240Z,14.77
2023-05-17T08:10:17.800Z,14.84
2023-05-17T08:11:30.761Z,14.85
2023-05-17T08:12:49.972Z,14.83
2023-05-17T08:13:54.337Z,14.77
2023-05-17T08:14:59.956Z,14.79
2023-05-17T08:16:13.530Z,14.79
2023-05-17T08:17:18.707Z,14.83
2023-05-17T08:18:22.985Z,14.84
2023-05-17T08:19:32.974Z,14.84
2023-05-17T08:20:38.081Z,14.85
2023-05-17T08:21:46.635Z,14.86
2023-05-17T08:23:06.634Z,14.82
2023-05-17T08:24:20.564Z,14.83
2023-05-17T08:25:36.516Z,14.87
2023-05-17T08:26:47.653Z,14.85
2023-05-17T08:27:51.929Z,14.85
2023-05-17T08:28:57.056Z,14.85
2023-05-17T08:30:05.329Z,14.76
2023-05-17T08:31:12.821Z,14.81
2023-05-17T08:32:20.896Z,14.80
2023-05-17T08:33:26.348Z,14.75
2023-05-17T08:34:30.433Z,14.79
2023-05-17T08:35:34.777Z,14.78
2023-05-17T08:36:39.527Z,14.81
2023-05-17T08:37:49.872Z,14.80
2023-05-17T08:38:53.838Z,14.81
2023-05-17T08:39:58.141Z,14.83
2023-05-17T08:41:03.424Z,14.80
2023-05-17T08:42:11.287Z,14.81
2023-05-17T08:43:18.057Z,14.85
2023-05-17T08:44:27.559Z,14.80
2023-05-17T08:45:33.105Z,14.82
2023-05-17T08:46:49.490Z,14.84
2023-05-17T08:47:54.982Z,14.86
2023-05-17T08:49:02.519Z,14.85
2023-05-17T08:50:07.940Z,14.80
2023-05-17T08:51:12.815Z,14.75
2023-05-17T08:52:17.694Z,14.78
2023-05-17T08:53:22.940Z,14.75
2023-05-17T08:54:30.246Z,14.79
2023-05-17T08:55:35.475Z,14.79
2023-05-17T08:57:01.286Z,14.76
2023-05-17T08:58:08.603Z,14.75
2023-05-17T08:59:15.329Z,14.75
2023-05-17T09:00:25.568Z,14.78
2023-05-17T09:01:33.095Z,14.75
2023-05-17T09:02:39.591Z,14.73
2023-05-17T09:03:49.872Z,14.71
2023-05-17T09:04:55.733Z,14.68
2023-05-17T09:06:01.166Z,14.71
2023-05-17T09:07:17.223Z,14.75
2023-05-17T09:08:24.629Z,14.79
2023-05-17T09:09:30.002Z,14.81
2023-05-17T09:10:34.190Z,14.79
2023-05-17T09:11:38.985Z,14.83
2023-05-17T09:12:42.910Z,14.80
2023-05-17T09:13:47.480Z,14.81
2023-05-17T09:14:52.764Z,14.81
2023-05-17T09:15:56.898Z,14.73
2023-05-17T09:17:02.288Z,14.72
2023-05-17T09:18:20.089Z,14.64
2023-05-17T09:19:26.537Z,14.62
2023-05-17T09:20:40.008Z,14.62
2023-05-17T09:21:51.275Z,14.62
2023-05-17T09:22:56.111Z,14.60
2023-05-17T09:25:11.948Z,14.50
2023-05-17T09:26:24.696Z,14.55
2023-05-17T09:27:32.549Z,14.47
2023-05-17T09:28:43.752Z,14.49
2023-05-17T09:29:48.680Z,14.48
2023-05-17T09:30:52.823Z,14.46
2023-05-17T09:31:57.028Z,14.43
2023-05-17T09:33:15.157Z,14.42
2023-05-17T09:34:23.730Z,14.42
2023-05-17T09:35:31.880Z,14.43
2023-05-17T09:36:43.711Z,14.41
2023-05-17T09:37:48.964Z,14.42
2023-05-17T09:38:59.695Z,14.41
2023-05-17T09:40:06.400Z,14.39
2023-05-17T09:41:11.376Z,14.38
2023-05-17T09:42:27.270Z,14.39
2023-05-17T09:43:32.325Z,14.35
2023-05-17T09:45:00.318Z,14.32
2023-05-17T09:46:09.837Z,14.27
2023-05-17T09:47:27.528Z,14.26
2023-05-17T09:48:31.993Z,14.23
2023-05-17T09:49:36.589Z,14.25
2023-05-17T09:50:52.390Z,14.16
2023-05-17T09:51:57.297Z,14.11
2023-05-17T09:53:34.099Z,14.02
2023-05-17T09:54:41.499Z,14.04
2023-05-17T09:55:49.133Z,13.99
2023-05-17T09:56:59.849Z,13.96
2023-05-17T09:58:04.887Z,13.94
2023-05-17T09:59:16.931Z,13.90
2023-05-17T10:00:24.365Z,13.89
2023-05-17T10:01:31.118Z,13.91
2023-05-17T10:02:38.148Z,13.91
2023-05-17T10:03:44.653Z,13.89
2023-05-17T10:05:30.870Z,13.86
2023-05-17T10:06:49.555Z,13.86
2023-05-17T10:08:13.650Z,13.82
2023-05-17T10:09:22.414Z,13.78
2023-05-17T10:10:31.388Z,13.76
2023-05-17T10:11:39.534Z,13.76
2023-05-17T10:12:45.893Z,13.73
2023-05-17T10:14:29.046Z,13.70
2023-05-17T10:15:35.886Z,13.65
2023-05-17T10:16:40.932Z,13.68
2023-05-17T10:17:46.572Z,13.73
2023-05-17T10:18:52.200Z,13.72
2023-05-17T10:19:58.048Z,13.74
2023-05-17T10:21:03.235Z,13.70
2023-05-17T10:22:21.704Z,13.71
2023-05-17T10:23:28.291Z,13.77
2023-05-17T10:24:33.185Z,13.73
2023-05-17T10:25:38.378Z,13.68
2023-05-17T10:26:50.781Z,13.69
2023-05-17T10:29:49.917Z,13.72
2023-05-17T10:31:00.404Z,13.68
2023-05-17T10:32:09.576Z,13.72
2023-05-17T10:33:28.366Z,13.74
2023-05-17T10:34:41.253Z,13.75
2023-05-17T10:35:56.922Z,13.72
2023-05-17T10:37:03.827Z,13.69
2023-05-17T10:38:15.820Z,13.72
2023-05-17T10:39:22.292Z,13.74
2023-05-17T10:40:27.046Z,13.76
2023-05-17T10:42:15.165Z,13.74
2023-05-17T10:43:24.476Z,13.73
2023-05-17T10:44:33.685Z,13.77
2023-05-17T10:45:38.495Z,13.74
2023-05-17T10:49:52.684Z,13.73
2023-05-17T10:51:38.467Z,13.74
2023-05-17T10:52:53.915Z,13.68
2023-05-17T10:54:21.166Z,13.71
2023-05-17T10:56:00.990Z,13.71
2023-05-17T10:57:50.778Z,13.72
2023-05-17T10:59:23.510Z,13.72
2023-05-17T11:00:33.444Z,13.69
2023-05-17T11:02:10.653Z,13.69
2023-05-17T11:03:34.427Z,13.71
2023-05-17T11:04:58.149Z,13.72
2023-05-17T11:08:17.522Z,13.70
2023-05-17T11:09:29.635Z,13.67
2023-05-17T11:12:59.563Z,13.62
2023-05-17T11:14:41.397Z,13.63
2023-05-17T11:15:45.421Z,13.63
2023-05-17T11:17:20.948Z,13.68
2023-05-17T11:19:10.593Z,13.57
2023-05-17T11:23:27.808Z,13.62
2023-05-17T11:25:22.046Z,13.61
2023-05-17T11:26:48.605Z,13.65
2023-05-17T11:27:58.613Z,13.65
2023-05-17T11:29:17.664Z,13.62
2023-05-17T11:30:37.858Z,13.67
2023-05-17T11:35:06.113Z,13.76
2023-05-17T11:36:58.311Z,13.72
2023-05-17T11:39:16.255Z,13.65
2023-05-17T11:40:31.461Z,13.67
2023-05-17T11:41:56.950Z,13.72
2023-05-17T11:43:32.133Z,13.70
2023-05-17T11:47:59.315Z,13.71
2023-05-17T11:49:13.657Z,13.69
2023-05-17T11:50:22.920Z,13.70
2023-05-17T11:51:27.990Z,13.68
2023-05-17T11:52:33.348Z,13.67
2023-05-17T11:54:07.539Z,13.67
2023-05-17T11:55:19.031Z,13.67
2023-05-17T11:56:39.536Z,13.67
2023-05-17T11:57:49.971Z,13.71
2023-05-17T11:58:57.272Z,13.66
2023-05-17T12:00:08.127Z,13.70
2023-05-17T12:01:12.694Z,13.73
2023-05-17T12:02:33.739Z,13.73
2023-05-17T12:03:42.846Z,13.69
2023-05-17T12:04:47.693Z,13.71
2023-05-17T12:06:22.054Z,13.67
2023-05-17T12:08:11.604Z,13.67
2023-05-17T12:09:18.111Z,13.64
2023-05-17T12:10:22.483Z,13.67
2023-05-17T12:11:32.569Z,13.69
2023-05-17T12:13:19.779Z,13.76
2023-05-17T12:14:31.220Z,13.75
2023-05-17T12:15:44.567Z,13.77
2023-05-17T12:16:54.606Z,13.73
2023-05-17T12:17:58.887Z,13.71
2023-05-17T12:19:03.619Z,13.67
2023-05-17T12:20:13.091Z,13.59
2023-05-17T12:21:19.333Z,13.56
2023-05-17T12:22:23.727Z,13.57
2023-05-17T12:23:43.804Z,13.54
2023-05-17T12:25:08.383Z,13.46
2023-05-17T12:26:19.085Z,13.44
2023-05-17T12:27:27.759Z,13.48
2023-05-17T12:28:33.248Z,13.43
2023-05-17T12:29:41.217Z,13.39
2023-05-17T12:31:03.579Z,13.37
2023-05-17T12:32:12.034Z,13.40
2023-05-17T12:33:16.460Z,13.35
2023-05-17T12:34:28.541Z,13.38
2023-05-17T12:35:38.647Z,13.32
2023-05-17T12:36:51.250Z,13.33
2023-05-17T12:37:55.680Z,13.31
2023-05-17T12:40:21.318Z,13.30
2023-05-17T12:41:34.014Z,13.28
2023-05-17T12:42:50.582Z,13.23
2023-05-17T12:44:16.664Z,13.23
2023-05-17T12:45:21.418Z,13.31
2023-05-17T12:46:46.685Z,13.27
2023-05-17T12:47:51.568Z,13.21
2023-05-17T12:49:14.701Z,13.19
2023-05-17T12:50:32.995Z,13.26
2023-05-17T12:51:51.738Z,13.27
2023-05-17T12:52:57.706Z,13.26
2023-05-17T12:54:02.342Z,13.29
2023-05-17T12:56:01.796Z,13.28
2023-05-17T12:57:20.683Z,13.32
2023-05-17T12:58:27.341Z,13.33
2023-05-17T13:01:09.432Z,13.24
2023-05-17T13:02:29.070Z,13.27
2023-05-17T13:03:51.786Z,13.18
2023-05-17T13:04:57.734Z,13.17
2023-05-17T13:06:11.146Z,13.13
2023-05-17T13:07:51.175Z,13.17
2023-05-17T13:09:02.028Z,13.06
2023-05-17T13:10:29.406Z,13.10
2023-05-17T13:11:51.453Z,13.04
2023-05-17T13:13:01.177Z,13.06
2023-05-17T13:14:13.479Z,13.07
2023-05-17T13:15:17.876Z,13.08
2023-05-17T13:16:43.842Z,13.13
2023-05-17T13:17:51.716Z,13.07
2023-05-17T13:18:58.467Z,13.02
2023-05-17T13:21:53.047Z,13.03
2023-05-17T13:22:58.576Z,12.97
2023-05-17T13:24:11.433Z,12.92
2023-05-17T13:25:37.301Z,12.87
2023-05-17T13:27:13.293Z,12.90
2023-05-17T13:28:49.820Z,12.91
2023-05-17T13:30:13.542Z,12.91
2023-05-17T13:31:51.175Z,12.93
2023-05-17T13:33:27.763Z,12.96
2023-05-17T13:34:32.752Z,12.94
2023-05-17T13:35:50.352Z,12.97
2023-05-17T13:37:02.610Z,12.95
2023-05-17T13:38:21.426Z,12.99
2023-05-17T13:39:44.190Z,13.01
2023-05-17T13:40:48.624Z,13.04
2023-05-17T13:44:49.081Z,12.96
2023-05-17T13:45:58.253Z,12.99
2023-05-17T13:47:07.256Z,12.96
2023-05-17T13:48:17.020Z,12.92
2023-05-17T13:49:28.638Z,12.87
2023-05-17T13:50:32.969Z,12.84
2023-05-17T13:51:40.863Z,12.78
2023-05-17T13:52:45.608Z,12.72
2023-05-17T13:53:49.804Z,12.70
2023-05-17T13:54:54.097Z,12.67
2023-05-17T13:55:58.645Z,12.69
2023-05-17T13:57:11.830Z,12.72
2023-05-17T13:58:22.891Z,12.72
2023-05-17T13:59:33.981Z,12.73
2023-05-17T14:00:37.945Z,12.69
2023-05-17T14:01:43.531Z,12.64
2023-05-17T14:02:50.487Z,12.61
2023-05-17T14:03:55.532Z,12.66
2023-05-17T14:05:10.950Z,12.66
2023-05-17T14:06:15.658Z,12.63
2023-05-17T14:07:19.625Z,12.65
2023-05-17T14:08:23.767Z,12.75
2023-05-17T14:09:42.857Z,12.76
2023-05-17T14:10:51.777Z,12.68
2023-05-17T14:11:59.295Z,12.56
2023-05-17T14:14:52.089Z,12.54
2023-05-17T14:16:00.292Z,12.56
2023-05-17T14:17:05.125Z,12.52
2023-05-17T14:18:13.754Z,12.54
2023-05-17T14:19:24.750Z,12.54
2023-05-17T14:20:30.117Z,12.50
2023-05-17T14:21:34.931Z,12.48
2023-05-17T14:22:39.999Z,12.40
2023-05-17T14:23:45.061Z,12.41
2023-05-17T14:24:52.990Z,12.38
2023-05-17T14:25:58.036Z,12.31
2023-05-17T14:27:24.223Z,12.30
2023-05-17T14:28:28.422Z,12.29
2023-05-17T14:29:40.899Z,12.31
2023-05-17T14:30:46.333Z,12.27
2023-05-17T14:31:50.692Z,12.27
2023-05-17T14:32:54.716Z,12.27
2023-05-17T14:34:04.241Z,12.29
2023-05-17T14:35:25.366Z,12.34
2023-05-17T14:36:29.845Z,12.32
2023-05-17T14:37:35.894Z,12.33
2023-05-17T14:38:43.087Z,12.33
2023-05-17T14:40:05.859Z,12.28
2023-05-17T14:41:24.985Z,12.27
2023-05-17T14:42:30.990Z,12.28
2023-05-17T14:43:42.275Z,12.32
2023-05-17T14:44:49.248Z,12.36
2023-05-17T14:45:59.399Z,12.36
2023-05-17T14:47:04.191Z,12.40
2023-05-17T14:48:33.448Z,12.37
2023-05-17T14:49:38.129Z,12.39
2023-05-17T14:50:45.172Z,12.39
2023-05-17T14:51:49.378Z,12.47
2023-05-17T14:52:57.363Z,12.47
2023-05-17T14:54:01.851Z,12.46
2023-05-17T14:55:07.067Z,12.49
2023-05-17T14:56:23.945Z,12.52
2023-05-17T14:57:40.941Z,12.54
2023-05-17T14:58:46.070Z,12.52
2023-05-17T15:00:12.822Z,12.47
2023-05-17T15:01:18.457Z,12.41
2023-05-17T15:02:23.361Z,12.41
2023-05-17T15:03:27.935Z,12.42
2023-05-17T15:04:32.542Z,12.43
2023-05-17T15:05:39.167Z,12.38
2023-05-17T15:06:54.099Z,12.41
2023-05-17T15:08:00.760Z,12.48
2023-05-17T15:09:18.505Z,12.40
2023-05-17T15:10:23.515Z,12.39
2023-05-17T15:11:28.118Z,12.39
2023-05-17T15:12:32.639Z,12.45
2023-05-17T15:13:46.210Z,12.46
2023-05-17T15:14:50.487Z,12.47
2023-05-17T15:15:54.600Z,12.46
2023-05-17T15:17:02.610Z,12.49
2023-05-17T15:18:18.559Z,12.53
2023-05-17T15:19:24.426Z,12.56
2023-05-17T15:20:28.833Z,12.57
2023-05-17T15:21:33.364Z,12.58
2023-05-17T15:22:37.994Z,12.57
2023-05-17T15:24:02.630Z,12.60
2023-05-17T15:25:07.539Z,12.60
2023-05-17T15:26:11.756Z,12.58
2023-05-17T15:27:17.388Z,12.57
2023-05-17T15:28:23.486Z,12.55
2023-05-17T15:29:29.088Z,12.56
2023-05-17T15:30:33.404Z,12.55
2023-05-17T15:31:37.850Z,12.54
2023-05-17T15:32:42.124Z,12.56
2023-05-17T15:33:46.894Z,12.57
2023-05-17T15:34:52.257Z,12.54
2023-05-17T15:35:56.254Z,12.58
2023-05-17T15:37:00.478Z,12.48